Historyczne dane pomiarowe

Dodano dane terminowe – wersja testowa.

Dane z okresu 1951-2019

Wersja bazy: 1.34 [2019-03-16, lista zmian], aktualizacja planowana na 2019-04-15

Dane meteo z obszaru Polski uzyskane na podstawie danych udostępnionych przez Instytut Meteorologii i Gospodarki Wodnej – Państwowy Instytut Badawczy.

 

Wybierz Datę:    

       

TemperaturaWilgotnośćWiatrCiśnienieOpadyŚniegCzas trwania zjawisk
 Stacja t tx tn tng RH VA  wxwx mslp ppp RRR   cm mm wxwxwxwxwxwxwx
1961-08-14 12.4 18.4 3.1--- 4.3 1.0---- 0.0------------
1961-08-13 11.2 18.2 9.9--- 7.3 3.3---- 3.5------------
1961-08-12 19.3 25.2 13.6--- 5.7 3.0---- 8.3------------
1961-08-11 23.8 31.3 16.1--- 1.7 5.7---- 0.0------------
1961-08-10 23.8 29.1 12.8--- 1.7 1.7---- 0.0------------
1961-08-09 20.0 28.6 12.2--- 3.0 1.0---- 56.5------------
1961-08-08 19.7 26.0 15.3--- 3.3 2.0---- 0.0------------
1961-08-07 21.8 28.9 14.4--- 0.0 2.7---- 0.0------------
1961-08-06 20.5 26.8 10.3--- 0.0 4.0---- 0.0------------
1961-08-05 15.9 23.0 10.7--- 3.0 1.7---- 0.0------------
1961-08-04 13.9 19.1 11.1--- 4.7 1.7---- 0.2------------
1961-08-03 16.8 22.9 8.9--- 6.3 3.3---- 6.4------------
1961-08-02 16.8 23.1 6.1--- 0.0 2.3---- 0.0------------
1961-08-01 12.6 20.0 7.9--- 6.0 3.0---- 0.0------------
1961-07-31 12.0 16.3 8.9--- 8.0 1.7---- 3.4------------
1961-07-30 9.9 11.3 8.6--- 8.0 8.3---- 14.5------------
1961-07-29 12.2 21.4 10.4--- 8.0 4.3---- 29.7------------
1961-07-28 18.8 27.3 13.5--- 4.3 5.0---- 1.5------------
1961-07-27 17.3 24.4 9.5--- 3.7 4.0---- 0.0------------
1961-07-26 14.4 20.6 3.3--- 3.3 1.3---- 0.0------------
1961-07-25 11.9 16.2 8.3--- 5.7 2.0---- 0.0------------
1961-07-24 13.4 18.4 10.9--- 7.3 2.3---- 0.0------------
1961-07-23 14.0 19.7 5.8--- 4.7 1.3---- 0.0------------
1961-07-22 13.6 18.3 8.9--- 5.0 1.7---- 0.6------------
1961-07-21 13.1 19.9 4.6--- 3.7 2.0---- 2.7------------
1961-07-20 12.4 16.4 6.6--- 7.7 2.7---- 15.1------------
1961-07-19 12.2 18.7 7.4--- 5.3 1.7---- 0.0------------
1961-07-18 12.2 18.9 4.8--- 5.3 3.0---- 3.2------------
1961-07-17 13.2 20.7 11.2--- 6.7 1.7---- 4.6------------
1961-07-16 16.0 22.5 10.6--- 4.3 5.7---- 2.7------------
1961-07-15 14.8 22.4 6.4--- 4.3 4.0---- 3.7------------
1961-07-14 10.6 17.9 7.7--- 4.7 2.3---- 1.5------------
1961-07-13 17.9 27.3 11.6--- 5.7 9.7---- 14.6------------
1961-07-12 17.8 26.1 7.5--- 2.7 4.7---- 0.0------------
1961-07-11 12.6 19.4 2.4--- 4.0 1.0---- 0.0------------
1961-07-10 13.0 19.2 8.1--- 7.3 3.3---- 2.1------------
1961-07-09 14.9 23.4 4.2--- 5.7 2.7---- 3.0------------
1961-07-08 12.6 20.1 7.7--- 1.7 1.3---- 0.0------------
1961-07-07 12.0 17.3 0.6--- 6.7 1.3---- 0.0------------
1961-07-06 9.3 17.4 2.6--- 2.7 2.0---- 0.0------------
1961-07-05 13.7 18.4 10.1--- 6.0 6.0---- 3.2------------
1961-07-04 21.2 29.2 10.7--- 2.3 4.0---- 0.3------------
1961-07-03 19.1 29.5 6.1--- 0.3 1.7---- 0.0------------
1961-07-02 16.5 26.3 6.3--- 0.0 0.7---- 0.0------------
1961-07-01 16.7 24.8 5.9--- 1.3 1.7---- 0.0------------
1961-06-30 13.6 20.9 8.2--- 3.3 1.7---- 0.0------------
1961-06-29 12.3 18.3 2.9--- 5.0 3.0---- 0.0------------
1961-06-28 12.0 23.7 8.4--- 6.7 6.0---- 2.5------------
1961-06-27 23.6 29.2 11.7--- 2.7 6.3---- 1.3------------
1961-06-26 20.2 28.5 11.1--- 3.0 2.3---- 0.0------------
1961-06-25 19.9 27.8 6.7--- 0.7 2.0---- 0.0------------
1961-06-24 17.4 25.3 7.1--- 4.3 1.3---- 0.0------------
1961-06-23 15.0 22.1 11.4--- 3.3 1.7---- 0.0------------
1961-06-22 17.8 23.4 6.0--- 2.3 2.7---- 9.5------------
1961-06-21 15.6 23.4 2.4--- 0.0 0.3---- 0.0------------
1961-06-20 12.4 18.7 8.0--- 4.0 3.3---- 0.0------------
1961-06-19 19.4 27.0 9.1--- 3.3 3.0---- 1.8------------
1961-06-18 15.9 25.3 5.4--- 0.7 1.0---- 0.0------------
1961-06-17 13.7 21.1 2.1--- 1.3 1.3---- 0.0------------
1961-06-16 11.4 18.4 4.3--- 1.3 1.0---- 0.0------------
266.1 ms

 

Źródłem pochodzenia danych jest Instytut Meteorologii i Gospodarki Wodnej – Państwowy Instytut Badawczy. Dane Instytutu Meteorologii i Gospodarki Wodnej – Państwowego Instytutu Badawczego zostały przetworzone.

Dane źródłowe można odnaleźć na stronie https://dane.imgw.pl